Main page
METAR-TAF:

METAR-TAF

Airports :

Velana International Airport

Malé, Maldives

latitude: 04-12N, longitude: 073-32E, elevation: 2 m

Current weather observation

The report was made 1 hour and 7 minutes ago, at 05:00 UTC
Wind 12 kt from the East/Southeast
Temperature 30°C
Humidity 79%
Pressure 1011 hPa
Visibility 10 km or more
Scattered clouds at a height of 1700 ft, Towering cumulus.
Broken clouds at a height of 27000 ft

METAR: VRMM 060500Z 12012KT 9999 SCT017TCU BKN270 30/26 Q1011 TEMPO 5000 -SHRA

Time: 11:07 (06:07 UTC)

Forecast

The report was made 1 hour and 7 minutes ago, at 05:00 UTC
Forecast valid from 06 at 06 UTC to 07 at 12 UTC
Wind 13 kt from the East/Southeast
Visibility 10 km or more
Scattered clouds at a height of 1700 ft
Temporary
from 06 at 06 UTC to 06 at 12 UTC
Visibility: 4000 m
Few clouds at a height of 1700 ft, Cumulonimbus.
rain showers

TAF: VRMM 060500Z 0606/0712 12013KT 9999 SCT017 TEMPO 0606/0612 4000 SHRA FEW017CB

Weather observations and forecasts of more than 4000 airports (METAR and TAF reports).

The available stations are represented by yellow and red dots on the map.

Hover mouse over dot to see the name of the station.

Then click to see weather observations and forecasts.

To change the map : click on the green buttons with a black cross to zoom in, on the green button with a dash to zoom out, or on the green arrows for adjacent maps.


METAR-TAF: